sensor_id;sensor_type;location;lat;lon;timestamp;pressure;altitude;pressure_sealevel;temperature;humidity
80242;BME280;69556;45.004;7.532;2024-01-25T00:01:11;99397.53;;;1.77;97.06
80242;BME280;69556;45.004;7.532;2024-01-25T00:03:36;99374.25;;;1.85;98.75
80242;BME280;69556;45.004;7.532;2024-01-25T00:06:02;99372.56;;;1.92;98.02
80242;BME280;69556;45.004;7.532;2024-01-25T00:08:28;99368.25;;;1.91;97.91
80242;BME280;69556;45.004;7.532;2024-01-25T00:10:53;99370.94;;;1.98;97.90
80242;BME280;69556;45.004;7.532;2024-01-25T00:13:18;99367.44;;;1.95;97.88
80242;BME280;69556;45.004;7.532;2024-01-25T00:15:44;99365.63;;;1.92;97.71
80242;BME280;69556;45.004;7.532;2024-01-25T00:18:09;99355.19;;;1.89;96.99
80242;BME280;69556;45.004;7.532;2024-01-25T00:20:34;99348.28;;;1.93;97.29
80242;BME280;69556;45.004;7.532;2024-01-25T00:23:00;99366.50;;;1.90;96.72
80242;BME280;69556;45.004;7.532;2024-01-25T00:25:25;99370.78;;;1.86;96.63
80242;BME280;69556;45.004;7.532;2024-01-25T00:27:52;99366.44;;;1.85;96.19
80242;BME280;69556;45.004;7.532;2024-01-25T00:30:17;99372.50;;;1.86;96.32
80242;BME280;69556;45.004;7.532;2024-01-25T00:32:42;99365.63;;;1.89;96.08
80242;BME280;69556;45.004;7.532;2024-01-25T00:35:08;99362.09;;;1.87;96.32
80242;BME280;69556;45.004;7.532;2024-01-25T00:37:39;99349.97;;;1.86;95.83
80242;BME280;69556;45.004;7.532;2024-01-25T00:40:05;99353.31;;;1.79;95.54
80242;BME280;69556;45.004;7.532;2024-01-25T00:42:31;99353.31;;;1.79;96.34
80242;BME280;69556;45.004;7.532;2024-01-25T00:45:00;99337.69;;;1.76;96.70
80242;BME280;69556;45.004;7.532;2024-01-25T00:47:25;99332.44;;;1.74;96.03
80242;BME280;69556;45.004;7.532;2024-01-25T00:49:51;99337.50;;;1.64;96.10
80242;BME280;69556;45.004;7.532;2024-01-25T00:52:17;99340.13;;;1.65;96.54
80242;BME280;69556;45.004;7.532;2024-01-25T00:54:42;99343.75;;;1.78;97.54
80242;BME280;69556;45.004;7.532;2024-01-25T00:57:08;99334.50;;;2.00;98.15
80242;BME280;69556;45.004;7.532;2024-01-25T00:59:34;99330.31;;;2.12;97.93
80242;BME280;69556;45.004;7.532;2024-01-25T01:02:01;99323.41;;;2.16;96.32
80242;BME280;69556;45.004;7.532;2024-01-25T01:04:29;99332.13;;;2.19;96.82
80242;BME280;69556;45.004;7.532;2024-01-25T01:06:55;99320.75;;;2.10;95.72
80242;BME280;69556;45.004;7.532;2024-01-25T01:09:20;99328.66;;;2.19;96.29
80242;BME280;69556;45.004;7.532;2024-01-25T01:11:45;99333.81;;;2.16;95.52
80242;BME280;69556;45.004;7.532;2024-01-25T01:14:10;99322.44;;;2.08;95.81
80242;BME280;69556;45.004;7.532;2024-01-25T01:16:36;99327.59;;;2.03;95.63
80242;BME280;69556;45.004;7.532;2024-01-25T01:19:01;99321.59;;;2.09;96.11
80242;BME280;69556;45.004;7.532;2024-01-25T01:21:31;99313.78;;;2.10;95.75
80242;BME280;69556;45.004;7.532;2024-01-25T01:23:57;99326.94;;;2.21;96.13
80242;BME280;69556;45.004;7.532;2024-01-25T01:26:22;99308.72;;;2.22;96.16
80242;BME280;69556;45.004;7.532;2024-01-25T01:28:47;99326.13;;;2.24;95.71
80242;BME280;69556;45.004;7.532;2024-01-25T01:31:13;99308.19;;;2.54;97.57
80242;BME280;69556;45.004;7.532;2024-01-25T01:33:38;99317.66;;;2.46;96.01
80242;BME280;69556;45.004;7.532;2024-01-25T01:36:04;99295.03;;;2.42;95.18
80242;BME280;69556;45.004;7.532;2024-01-25T01:38:29;99308.03;;;2.40;94.46
80242;BME280;69556;45.004;7.532;2024-01-25T01:40:54;99313.38;;;2.54;95.57
80242;BME280;69556;45.004;7.532;2024-01-25T01:43:20;99316.84;;;2.51;93.99
80242;BME280;69556;45.004;7.532;2024-01-25T01:45:45;99293.56;;;2.71;94.33
80242;BME280;69556;45.004;7.532;2024-01-25T01:48:11;99302.34;;;2.79;94.26
80242;BME280;69556;45.004;7.532;2024-01-25T01:50:37;99312.72;;;2.76;94.12
80242;BME280;69556;45.004;7.532;2024-01-25T01:53:03;99304.19;;;2.95;94.15
80242;BME280;69556;45.004;7.532;2024-01-25T01:55:29;99312.09;;;3.03;93.64
80242;BME280;69556;45.004;7.532;2024-01-25T01:57:55;99294.63;;;2.93;92.99
80242;BME280;69556;45.004;7.532;2024-01-25T02:00:20;99295.41;;;2.86;93.11
80242;BME280;69556;45.004;7.532;2024-01-25T02:02:46;99295.28;;;2.67;93.16
80242;BME280;69556;45.004;7.532;2024-01-25T02:05:12;99319.53;;;2.59;93.59
80242;BME280;69556;45.004;7.532;2024-01-25T02:07:38;99311.69;;;2.57;93.69
80242;BME280;69556;45.004;7.532;2024-01-25T02:10:06;99312.59;;;2.59;94.08
80242;BME280;69556;45.004;7.532;2024-01-25T02:12:31;99322.13;;;2.59;93.88
80242;BME280;69556;45.004;7.532;2024-01-25T02:14:57;99326.53;;;2.64;94.23
80242;BME280;69556;45.004;7.532;2024-01-25T02:17:22;99302.16;;;2.62;94.17
80242;BME280;69556;45.004;7.532;2024-01-25T02:19:48;99299.56;;;2.62;94.45
80242;BME280;69556;45.004;7.532;2024-01-25T02:22:22;99311.69;;;2.59;93.87
80242;BME280;69556;45.004;7.532;2024-01-25T02:24:47;99301.16;;;2.48;93.36
80242;BME280;69556;45.004;7.532;2024-01-25T02:27:13;99301.94;;;2.38;93.92
80242;BME280;69556;45.004;7.532;2024-01-25T02:29:38;99296.66;;;2.31;93.92
80242;BME280;69556;45.004;7.532;2024-01-25T02:32:04;99296.66;;;2.31;94.08
80242;BME280;69556;45.004;7.532;2024-01-25T02:34:29;99291.44;;;2.31;94.45
80242;BME280;69556;45.004;7.532;2024-01-25T02:36:54;99309.72;;;2.32;93.57
80242;BME280;69556;45.004;7.532;2024-01-25T02:39:20;99284.59;;;2.37;93.71
80242;BME280;69556;45.004;7.532;2024-01-25T02:41:45;99287.13;;;2.34;93.14
80242;BME280;69556;45.004;7.532;2024-01-25T02:44:11;99302.69;;;2.27;93.16
80242;BME280;69556;45.004;7.532;2024-01-25T02:46:36;99264.69;;;2.45;93.90
80242;BME280;69556;45.004;7.532;2024-01-25T02:49:03;99283.81;;;2.49;93.29
80242;BME280;69556;45.004;7.532;2024-01-25T02:51:28;99258.88;;;2.75;93.92
80242;BME280;69556;45.004;7.532;2024-01-25T02:53:53;99282.41;;;2.90;92.83
80242;BME280;69556;45.004;7.532;2024-01-25T02:56:19;99267.78;;;3.09;92.45
80242;BME280;69556;45.004;7.532;2024-01-25T02:58:44;99271.38;;;3.25;92.52
80242;BME280;69556;45.004;7.532;2024-01-25T03:01:10;99274.00;;;3.32;91.39
80242;BME280;69556;45.004;7.532;2024-01-25T03:03:35;99272.22;;;3.22;91.43
80242;BME280;69556;45.004;7.532;2024-01-25T03:06:00;99262.59;;;3.14;91.14
80242;BME280;69556;45.004;7.532;2024-01-25T03:08:25;99263.41;;;3.05;91.30
80242;BME280;69556;45.004;7.532;2024-01-25T03:10:51;99265.09;;;2.95;91.69
80242;BME280;69556;45.004;7.532;2024-01-25T03:13:16;99284.22;;;2.96;92.54
80242;BME280;69556;45.004;7.532;2024-01-25T03:15:42;99266.81;;;2.92;92.75
80242;BME280;69556;45.004;7.532;2024-01-25T03:18:08;99276.31;;;2.90;92.85
80242;BME280;69556;45.004;7.532;2024-01-25T03:20:33;99269.38;;;2.84;93.06
80242;BME280;69556;45.004;7.532;2024-01-25T03:22:58;99267.56;;;2.80;92.80
80242;BME280;69556;45.004;7.532;2024-01-25T03:25:23;99288.28;;;2.60;92.38
80242;BME280;69556;45.004;7.532;2024-01-25T03:27:49;99267.28;;;2.45;92.94
80242;BME280;69556;45.004;7.532;2024-01-25T03:30:14;99267.19;;;2.35;92.00
80242;BME280;69556;45.004;7.532;2024-01-25T03:32:40;99274.88;;;2.24;92.96
80242;BME280;69556;45.004;7.532;2024-01-25T03:35:05;99286.34;;;2.43;95.03
80242;BME280;69556;45.004;7.532;2024-01-25T03:37:31;99281.19;;;2.47;95.56
80242;BME280;69556;45.004;7.532;2024-01-25T03:39:56;99270.03;;;2.60;94.78
80242;BME280;69556;45.004;7.532;2024-01-25T03:42:21;99275.25;;;2.63;94.56
80242;BME280;69556;45.004;7.532;2024-01-25T03:44:47;99265.66;;;2.56;93.83
80242;BME280;69556;45.004;7.532;2024-01-25T03:47:13;99270.81;;;2.53;93.70
80242;BME280;69556;45.004;7.532;2024-01-25T03:49:38;99249.13;;;2.57;93.13
80242;BME280;69556;45.004;7.532;2024-01-25T03:52:04;99274.31;;;2.54;92.89
80242;BME280;69556;45.004;7.532;2024-01-25T03:54:30;99271.66;;;2.52;92.98
80242;BME280;69556;45.004;7.532;2024-01-25T03:56:55;99264.75;;;2.51;92.80
80242;BME280;69556;45.004;7.532;2024-01-25T03:59:21;99258.56;;;2.42;92.93
80242;BME280;69556;45.004;7.532;2024-01-25T04:01:47;99266.28;;;2.34;93.37
80242;BME280;69556;45.004;7.532;2024-01-25T04:04:13;99268.84;;;2.30;93.33
80242;BME280;69556;45.004;7.532;2024-01-25T04:06:41;99264.47;;;2.26;93.45
80242;BME280;69556;45.004;7.532;2024-01-25T04:09:08;99273.97;;;2.19;93.44
80242;BME280;69556;45.004;7.532;2024-01-25T04:11:33;99273.94;;;2.16;93.78
80242;BME280;69556;45.004;7.532;2024-01-25T04:13:58;99272.16;;;2.15;94.83
80242;BME280;69556;45.004;7.532;2024-01-25T04:16:26;99266.94;;;2.12;94.32
80242;BME280;69556;45.004;7.532;2024-01-25T04:18:51;99274.66;;;2.03;94.54
80242;BME280;69556;45.004;7.532;2024-01-25T04:21:16;99263.41;;;2.07;94.78
80242;BME280;69556;45.004;7.532;2024-01-25T04:23:42;99278.91;;;1.96;94.61
80242;BME280;69556;45.004;7.532;2024-01-25T04:26:07;99292.03;;;2.05;95.77
80242;BME280;69556;45.004;7.532;2024-01-25T04:28:32;99281.59;;;2.02;95.74
80242;BME280;69556;45.004;7.532;2024-01-25T04:30:57;99265.94;;;2.01;95.19
80242;BME280;69556;45.004;7.532;2024-01-25T04:33:23;99274.59;;;1.97;95.79
80242;BME280;69556;45.004;7.532;2024-01-25T04:35:48;99286.69;;;1.90;95.77
80242;BME280;69556;45.004;7.532;2024-01-25T04:38:14;99282.31;;;1.89;96.52
80242;BME280;69556;45.004;7.532;2024-01-25T04:40:39;99279.66;;;1.85;95.95
80242;BME280;69556;45.004;7.532;2024-01-25T04:43:04;99278.81;;;1.87;95.88
80242;BME280;69556;45.004;7.532;2024-01-25T04:45:30;99280.59;;;1.90;97.34
80242;BME280;69556;45.004;7.532;2024-01-25T04:47:55;99280.63;;;1.91;96.48
80242;BME280;69556;45.004;7.532;2024-01-25T04:50:20;99276.25;;;1.92;96.47
80242;BME280;69556;45.004;7.532;2024-01-25T04:52:46;99290.16;;;1.91;96.82
80242;BME280;69556;45.004;7.532;2024-01-25T04:55:11;99290.16;;;1.91;96.09
80242;BME280;69556;45.004;7.532;2024-01-25T04:57:36;99276.22;;;1.86;96.61
80242;BME280;69556;45.004;7.532;2024-01-25T05:00:02;99275.25;;;1.79;96.02
80242;BME280;69556;45.004;7.532;2024-01-25T05:02:28;99265.63;;;1.73;96.16
80242;BME280;69556;45.004;7.532;2024-01-25T05:04:53;99282.91;;;1.68;96.24
80242;BME280;69556;45.004;7.532;2024-01-25T05:07:18;99272.59;;;1.74;97.10
80242;BME280;69556;45.004;7.532;2024-01-25T05:09:43;99287.50;;;1.86;97.55
80242;BME280;69556;45.004;7.532;2024-01-25T05:12:09;99288.38;;;1.88;97.63
80242;BME280;69556;45.004;7.532;2024-01-25T05:14:34;99275.31;;;1.84;96.85
80242;BME280;69556;45.004;7.532;2024-01-25T05:17:00;99281.31;;;1.76;96.87
80242;BME280;69556;45.004;7.532;2024-01-25T05:19:25;99291.72;;;1.76;97.47
80242;BME280;69556;45.004;7.532;2024-01-25T05:21:50;99279.56;;;1.75;97.23
80242;BME280;69556;45.004;7.532;2024-01-25T05:24:16;99293.50;;;1.81;96.85
80242;BME280;69556;45.004;7.532;2024-01-25T05:26:41;99278.72;;;1.80;96.37
80242;BME280;69556;45.004;7.532;2024-01-25T05:29:07;99309.00;;;1.73;96.33
80242;BME280;69556;45.004;7.532;2024-01-25T05:31:32;99315.03;;;1.67;96.25
80242;BME280;69556;45.004;7.532;2024-01-25T05:33:57;99301.91;;;1.60;97.01
80242;BME280;69556;45.004;7.532;2024-01-25T05:36:23;99303.69;;;1.62;96.91
80242;BME280;69556;45.004;7.532;2024-01-25T05:38:48;99298.28;;;1.49;96.35
80242;BME280;69556;45.004;7.532;2024-01-25T05:41:13;99312.00;;;1.37;95.70
80242;BME280;69556;45.004;7.532;2024-01-25T05:43:39;99301.53;;;1.32;96.73
80242;BME280;69556;45.004;7.532;2024-01-25T05:46:04;99310.19;;;1.33;97.48
80242;BME280;69556;45.004;7.532;2024-01-25T05:48:29;99317.13;;;1.32;97.78
80242;BME280;69556;45.004;7.532;2024-01-25T05:50:55;99315.44;;;1.36;97.93
80242;BME280;69556;45.004;7.532;2024-01-25T05:53:20;99331.97;;;1.41;97.98
80242;BME280;69556;45.004;7.532;2024-01-25T05:55:46;99327.50;;;1.29;97.28
80242;BME280;69556;45.004;7.532;2024-01-25T05:58:12;99314.50;;;1.29;97.21
80242;BME280;69556;45.004;7.532;2024-01-25T06:00:37;99319.63;;;1.25;96.96
80242;BME280;69556;45.004;7.532;2024-01-25T06:03:02;99315.09;;;1.12;96.54
80242;BME280;69556;45.004;7.532;2024-01-25T06:05:28;99301.97;;;1.04;97.57
80242;BME280;69556;45.004;7.532;2024-01-25T06:07:53;99329.59;;;0.98;96.85
80242;BME280;69556;45.004;7.532;2024-01-25T06:10:18;99322.50;;;0.89;97.80
80242;BME280;69556;45.004;7.532;2024-01-25T06:12:44;99326.75;;;0.82;97.29
80242;BME280;69556;45.004;7.532;2024-01-25T06:15:09;99325.75;;;0.74;97.45
80242;BME280;69556;45.004;7.532;2024-01-25T06:17:35;99329.97;;;0.68;97.27
80242;BME280;69556;45.004;7.532;2024-01-25T06:20:01;99347.16;;;0.61;97.05
80242;BME280;69556;45.004;7.532;2024-01-25T06:22:26;99352.44;;;0.66;98.28
80242;BME280;69556;45.004;7.532;2024-01-25T06:24:51;99329.03;;;0.66;97.84
80242;BME280;69556;45.004;7.532;2024-01-25T06:27:17;99337.63;;;0.62;97.96
80242;BME280;69556;45.004;7.532;2024-01-25T06:29:42;99347.22;;;0.64;98.14
80242;BME280;69556;45.004;7.532;2024-01-25T06:32:07;99338.59;;;0.65;98.02
80242;BME280;69556;45.004;7.532;2024-01-25T06:34:33;99355.66;;;0.53;97.91
80242;BME280;69556;45.004;7.532;2024-01-25T06:36:58;99353.19;;;0.59;98.78
80242;BME280;69556;45.004;7.532;2024-01-25T06:39:23;99343.50;;;0.50;98.31
80242;BME280;69556;45.004;7.532;2024-01-25T06:41:49;99347.91;;;0.54;98.25
80242;BME280;69556;45.004;7.532;2024-01-25T06:44:14;99353.03;;;0.50;98.69
80242;BME280;69556;45.004;7.532;2024-01-25T06:46:39;99359.84;;;0.44;98.53
80242;BME280;69556;45.004;7.532;2024-01-25T06:49:05;99360.84;;;0.51;98.78
80242;BME280;69556;45.004;7.532;2024-01-25T06:51:30;99356.47;;;0.49;98.19
80242;BME280;69556;45.004;7.532;2024-01-25T06:53:55;99351.22;;;0.46;98.23
80242;BME280;69556;45.004;7.532;2024-01-25T06:56:21;99350.34;;;0.45;98.90
80242;BME280;69556;45.004;7.532;2024-01-25T06:58:46;99343.47;;;0.49;98.52
80242;BME280;69556;45.004;7.532;2024-01-25T07:01:11;99347.88;;;0.51;98.43
80242;BME280;69556;45.004;7.532;2024-01-25T07:03:38;99332.19;;;0.47;98.36
80242;BME280;69556;45.004;7.532;2024-01-25T07:06:04;99340.19;;;0.59;98.47
80242;BME280;69556;45.004;7.532;2024-01-25T07:08:29;99337.63;;;0.62;98.78
80242;BME280;69556;45.004;7.532;2024-01-25T07:10:55;99343.19;;;0.81;100.00
80242;BME280;69556;45.004;7.532;2024-01-25T07:13:21;99342.50;;;0.92;99.67
80242;BME280;69556;45.004;7.532;2024-01-25T07:15:47;99331.50;;;1.09;99.82
80242;BME280;69556;45.004;7.532;2024-01-25T07:18:12;99335.78;;;1.06;99.00
80242;BME280;69556;45.004;7.532;2024-01-25T07:20:38;99341.13;;;1.15;98.43
80242;BME280;69556;45.004;7.532;2024-01-25T07:23:03;99328.09;;;1.12;98.31
80242;BME280;69556;45.004;7.532;2024-01-25T07:25:29;99336.81;;;1.17;97.82
80242;BME280;69556;45.004;7.532;2024-01-25T07:27:54;99348.97;;;1.18;97.54
80242;BME280;69556;45.004;7.532;2024-01-25T07:30:19;99345.63;;;1.25;97.47
80242;BME280;69556;45.004;7.532;2024-01-25T07:32:45;99339.69;;;1.33;97.84
80242;BME280;69556;45.004;7.532;2024-01-25T07:35:11;99340.75;;;1.48;97.69
80242;BME280;69556;45.004;7.532;2024-01-25T07:37:38;99331.28;;;1.53;97.52
80242;BME280;69556;45.004;7.532;2024-01-25T07:40:03;99337.41;;;1.56;97.20
80242;BME280;69556;45.004;7.532;2024-01-25T07:42:29;99349.75;;;1.71;97.06
80242;BME280;69556;45.004;7.532;2024-01-25T07:44:54;99353.31;;;1.79;97.00
80242;BME280;69556;45.004;7.532;2024-01-25T07:47:19;99333.47;;;1.86;96.71
80242;BME280;69556;45.004;7.532;2024-01-25T07:49:45;99348.28;;;1.93;96.19
80242;BME280;69556;45.004;7.532;2024-01-25T07:52:10;99346.66;;;1.99;95.98
80242;BME280;69556;45.004;7.532;2024-01-25T07:54:35;99350.22;;;2.07;95.08
80242;BME280;69556;45.004;7.532;2024-01-25T07:57:01;99349.44;;;2.16;95.07
80242;BME280;69556;45.004;7.532;2024-01-25T07:59:26;99346.91;;;2.19;94.78
80242;BME280;69556;45.004;7.532;2024-01-25T08:01:51;99343.50;;;2.29;94.57
80242;BME280;69556;45.004;7.532;2024-01-25T08:04:17;99351.31;;;2.29;94.03
80242;BME280;69556;45.004;7.532;2024-01-25T08:06:42;99353.97;;;2.31;94.28
80242;BME280;69556;45.004;7.532;2024-01-25T08:09:07;99340.16;;;2.39;93.43
80242;BME280;69556;45.004;7.532;2024-01-25T08:11:34;99348.94;;;2.46;93.58
80242;BME280;69556;45.004;7.532;2024-01-25T08:13:59;99358.50;;;2.50;93.60
80242;BME280;69556;45.004;7.532;2024-01-25T08:16:24;99356.81;;;2.53;93.19
80242;BME280;69556;45.004;7.532;2024-01-25T08:18:50;99352.59;;;2.64;92.99
80242;BME280;69556;45.004;7.532;2024-01-25T08:21:15;99354.38;;;2.70;92.37
80242;BME280;69556;45.004;7.532;2024-01-25T08:23:41;99364.91;;;2.81;91.97
80242;BME280;69556;45.004;7.532;2024-01-25T08:26:07;99353.63;;;2.85;91.54
80242;BME280;69556;45.004;7.532;2024-01-25T08:28:41;99363.25;;;2.90;91.47
80242;BME280;69556;45.004;7.532;2024-01-25T08:31:08;99368.53;;;2.99;91.52
80242;BME280;69556;45.004;7.532;2024-01-25T08:33:34;99362.56;;;3.11;91.38
80242;BME280;69556;45.004;7.532;2024-01-25T08:35:59;99360.88;;;3.19;91.07
80242;BME280;69556;45.004;7.532;2024-01-25T08:38:25;99353.13;;;3.25;91.38
80242;BME280;69556;45.004;7.532;2024-01-25T08:40:50;99364.50;;;3.38;91.04
80242;BME280;69556;45.004;7.532;2024-01-25T08:43:15;99368.03;;;3.43;90.55
80242;BME280;69556;45.004;7.532;2024-01-25T08:45:41;99368.09;;;3.53;90.60
80242;BME280;69556;45.004;7.532;2024-01-25T08:48:06;99355.94;;;3.60;90.21
80242;BME280;69556;45.004;7.532;2024-01-25T08:50:34;99362.97;;;3.67;89.82
80242;BME280;69556;45.004;7.532;2024-01-25T08:52:59;99368.22;;;3.75;90.20
80242;BME280;69556;45.004;7.532;2024-01-25T08:55:25;99356.94;;;3.83;90.46
80242;BME280;69556;45.004;7.532;2024-01-25T08:57:50;99361.38;;;3.95;90.43
80242;BME280;69556;45.004;7.532;2024-01-25T09:00:16;99356.19;;;4.04;90.09
80242;BME280;69556;45.004;7.532;2024-01-25T09:02:41;99375.38;;;4.11;89.84
80242;BME280;69556;45.004;7.532;2024-01-25T09:05:08;99386.72;;;4.17;89.37
80242;BME280;69556;45.004;7.532;2024-01-25T09:07:37;99381.53;;;4.26;89.34
80242;BME280;69556;45.004;7.532;2024-01-25T09:10:02;99378.97;;;4.35;89.60
80242;BME280;69556;45.004;7.532;2024-01-25T09:12:29;99383.34;;;4.38;90.11
80242;BME280;69556;45.004;7.532;2024-01-25T09:14:55;99387.72;;;4.50;90.17
80242;BME280;69556;45.004;7.532;2024-01-25T09:17:20;99380.75;;;4.55;90.11
80242;BME280;69556;45.004;7.532;2024-01-25T09:19:49;99385.16;;;4.68;90.24
80242;BME280;69556;45.004;7.532;2024-01-25T09:22:18;99384.28;;;4.72;89.65
80242;BME280;69556;45.004;7.532;2024-01-25T09:24:47;99382.56;;;4.77;89.10
80242;BME280;69556;45.004;7.532;2024-01-25T09:27:13;99386.09;;;4.94;88.85
80242;BME280;69556;45.004;7.532;2024-01-25T09:29:39;99397.44;;;5.04;89.26
80242;BME280;69556;45.004;7.532;2024-01-25T09:32:06;99382.63;;;5.12;89.65
80242;BME280;69556;45.004;7.532;2024-01-25T09:34:32;99377.38;;;5.19;90.10
80242;BME280;69556;45.004;7.532;2024-01-25T09:36:57;99400.06;;;5.25;89.55
80242;BME280;69556;45.004;7.532;2024-01-25T09:39:22;99383.50;;;5.30;89.47
80242;BME280;69556;45.004;7.532;2024-01-25T09:41:48;99390.44;;;5.42;89.86
80242;BME280;69556;45.004;7.532;2024-01-25T09:44:13;99395.69;;;5.47;89.46
80242;BME280;69556;45.004;7.532;2024-01-25T09:46:39;99410.53;;;5.60;89.67
80242;BME280;69556;45.004;7.532;2024-01-25T09:49:07;99423.63;;;5.64;89.26
80242;BME280;69556;45.004;7.532;2024-01-25T09:51:41;99414.91;;;5.64;88.46
80242;BME280;69556;45.004;7.532;2024-01-25T09:54:07;99421.00;;;5.69;88.22
80242;BME280;69556;45.004;7.532;2024-01-25T09:56:33;99420.97;;;5.93;87.56
80242;BME280;69556;45.004;7.532;2024-01-25T09:58:59;99429.69;;;5.98;87.26
80242;BME280;69556;45.004;7.532;2024-01-25T10:01:26;99433.22;;;6.02;87.79
80242;BME280;69556;45.004;7.532;2024-01-25T10:03:53;99427.09;;;6.06;87.77
80242;BME280;69556;45.004;7.532;2024-01-25T10:06:21;99425.31;;;6.09;87.44
80242;BME280;69556;45.004;7.532;2024-01-25T10:08:46;99413.06;;;6.07;87.10
80242;BME280;69556;45.004;7.532;2024-01-25T10:11:11;99430.56;;;6.09;86.73
80242;BME280;69556;45.004;7.532;2024-01-25T10:13:44;99436.66;;;6.11;87.48
80242;BME280;69556;45.004;7.532;2024-01-25T10:16:16;99432.31;;;6.10;86.91
80242;BME280;69556;45.004;7.532;2024-01-25T10:18:44;99438.41;;;6.12;86.22
80242;BME280;69556;45.004;7.532;2024-01-25T10:21:10;99434.91;;;6.13;86.02
80242;BME280;69556;45.004;7.532;2024-01-25T10:23:36;99438.38;;;6.17;85.95
80242;BME280;69556;45.004;7.532;2024-01-25T10:26:02;99424.41;;;6.24;84.89
80242;BME280;69556;45.004;7.532;2024-01-25T10:28:27;99436.59;;;6.43;83.73
80242;BME280;69556;45.004;7.532;2024-01-25T10:30:59;99428.69;;;6.45;82.96
80242;BME280;69556;45.004;7.532;2024-01-25T10:33:26;99425.16;;;6.53;82.50
80242;BME280;69556;45.004;7.532;2024-01-25T10:35:54;99412.84;;;6.68;83.12
80242;BME280;69556;45.004;7.532;2024-01-25T10:38:20;99424.22;;;6.71;83.48
80242;BME280;69556;45.004;7.532;2024-01-25T10:40:47;99418.94;;;6.76;84.71
80242;BME280;69556;45.004;7.532;2024-01-25T10:43:12;99417.16;;;6.78;84.77
80242;BME280;69556;45.004;7.532;2024-01-25T10:45:37;99414.53;;;6.85;84.07
80242;BME280;69556;45.004;7.532;2024-01-25T10:48:04;99407.50;;;6.87;84.50
80242;BME280;69556;45.004;7.532;2024-01-25T10:50:29;99413.59;;;6.92;82.98
80242;BME280;69556;45.004;7.532;2024-01-25T10:52:55;99405.69;;;6.98;81.28
80242;BME280;69556;45.004;7.532;2024-01-25T10:55:21;99399.50;;;7.05;80.99
80242;BME280;69556;45.004;7.532;2024-01-25T10:57:47;99388.97;;;7.12;81.03
80242;BME280;69556;45.004;7.532;2024-01-25T11:00:13;99375.81;;;7.15;81.33
80242;BME280;69556;45.004;7.532;2024-01-25T11:02:40;99391.53;;;7.19;81.88
80242;BME280;69556;45.004;7.532;2024-01-25T11:05:13;99388.78;;;7.33;82.95
80242;BME280;69556;45.004;7.532;2024-01-25T11:07:47;99378.28;;;7.36;82.16
80242;BME280;69556;45.004;7.532;2024-01-25T11:10:20;99363.28;;;7.48;81.81
80242;BME280;69556;45.004;7.532;2024-01-25T11:13:13;99369.19;;;7.72;80.91
80242;BME280;69556;45.004;7.532;2024-01-25T11:15:38;99362.03;;;7.86;79.67
80242;BME280;69556;45.004;7.532;2024-01-25T11:18:08;99348.94;;;7.81;78.94
80242;BME280;69556;45.004;7.532;2024-01-25T11:20:34;99356.81;;;7.83;78.70
80242;BME280;69556;45.004;7.532;2024-01-25T11:23:04;99360.22;;;7.92;78.50
80242;BME280;69556;45.004;7.532;2024-01-25T11:25:34;99357.47;;;8.02;79.14
80242;BME280;69556;45.004;7.532;2024-01-25T11:28:01;99358.16;;;8.19;78.78
80242;BME280;69556;45.004;7.532;2024-01-25T11:30:33;99349.28;;;8.27;78.80
80242;BME280;69556;45.004;7.532;2024-01-25T11:32:59;99336.97;;;8.34;77.04
80242;BME280;69556;45.004;7.532;2024-01-25T11:35:24;99335.91;;;8.47;76.45
80242;BME280;69556;45.004;7.532;2024-01-25T11:37:50;99348.94;;;8.56;76.62
80242;BME280;69556;45.004;7.532;2024-01-25T11:40:19;99350.56;;;8.63;76.93
80242;BME280;69556;45.004;7.532;2024-01-25T11:42:47;99337.25;;;8.75;75.08
80242;BME280;69556;45.004;7.532;2024-01-25T11:45:13;99335.19;;;8.96;75.41
80242;BME280;69556;45.004;7.532;2024-01-25T11:47:40;99337.13;;;8.83;75.84
80242;BME280;69556;45.004;7.532;2024-01-25T11:50:07;99331.09;;;8.76;76.78
80242;BME280;69556;45.004;7.532;2024-01-25T11:52:33;99331.03;;;8.79;77.21
80242;BME280;69556;45.004;7.532;2024-01-25T11:55:03;99329.16;;;8.88;76.47
80242;BME280;69556;45.004;7.532;2024-01-25T11:57:35;99330.91;;;8.89;76.80
80242;BME280;69556;45.004;7.532;2024-01-25T12:00:02;99329.81;;;9.03;76.16
80242;BME280;69556;45.004;7.532;2024-01-25T12:02:29;99313.94;;;9.06;76.53
80242;BME280;69556;45.004;7.532;2024-01-25T12:04:57;99317.06;;;9.29;74.45
80242;BME280;69556;45.004;7.532;2024-01-25T12:07:22;99320.41;;;9.41;74.17
80242;BME280;69556;45.004;7.532;2024-01-25T12:10:04;99323.91;;;9.40;74.27
80242;BME280;69556;45.004;7.532;2024-01-25T12:12:30;99310.66;;;9.44;74.05
80242;BME280;69556;45.004;7.532;2024-01-25T12:15:04;99310.47;;;9.55;73.72
80242;BME280;69556;45.004;7.532;2024-01-25T12:17:30;99314.72;;;9.62;73.63
80242;BME280;69556;45.004;7.532;2024-01-25T12:19:57;99310.41;;;9.59;72.84
80242;BME280;69556;45.004;7.532;2024-01-25T12:22:23;99309.53;;;9.59;71.96
80242;BME280;69556;45.004;7.532;2024-01-25T12:24:52;99305.66;;;9.78;71.20
80242;BME280;69556;45.004;7.532;2024-01-25T12:27:20;99296.47;;;9.97;69.73
80242;BME280;69556;45.004;7.532;2024-01-25T12:29:45;99297.41;;;9.95;69.28
80242;BME280;69556;45.004;7.532;2024-01-25T12:32:10;99308.78;;;9.97;69.65
80242;BME280;69556;45.004;7.532;2024-01-25T12:34:36;99298.97;;;10.03;69.66
80242;BME280;69556;45.004;7.532;2024-01-25T12:37:03;99296.13;;;10.17;69.07
80242;BME280;69556;45.004;7.532;2024-01-25T12:39:28;99294.91;;;10.32;67.07
80242;BME280;69556;45.004;7.532;2024-01-25T12:41:53;99294.53;;;10.48;67.17
80242;BME280;69556;45.004;7.532;2024-01-25T12:44:19;99295.38;;;10.50;67.66
80242;BME280;69556;45.004;7.532;2024-01-25T12:46:44;99299.50;;;10.64;67.96
80242;BME280;69556;45.004;7.532;2024-01-25T12:49:09;99288.44;;;10.83;64.58
80242;BME280;69556;45.004;7.532;2024-01-25T12:51:35;99281.88;;;11.01;60.96
80242;BME280;69556;45.004;7.532;2024-01-25T12:54:00;99280.81;;;11.08;59.35
80242;BME280;69556;45.004;7.532;2024-01-25T12:56:26;99273.41;;;11.22;59.46
80242;BME280;69556;45.004;7.532;2024-01-25T12:58:51;99272.78;;;11.45;58.15
80242;BME280;69556;45.004;7.532;2024-01-25T13:01:16;99282.38;;;11.49;59.00
80242;BME280;69556;45.004;7.532;2024-01-25T13:03:42;99286.19;;;11.73;56.77